Terminal Aerodrome Forecast
Issued by NWS Quad Cities IA IL

Home | Current Version | Previous Version | Text Only | Print | Product List | Glossary On
Versions: 1 2 3 4 5 6 7 8 9 10 11 12 13 14 15 16 17 18
000
FTUS43 KDVN 251000 AAA
TAFDBQ
TAF AMD
KDBQ 251002Z 2510/2606 24014KT P6SM OVC013
     FM251900 18013KT P6SM SCT015 BKN250
     FM252200 15008KT P6SM BKN200=

USA.gov is the U.S. government's official web portal to all federal, state and local government web resources and services.